Time;durP1;ratioP1;P1;durP2;ratioP2;P2;SDS_P1;SDS_P2;PMS_P1;PMS_P2;Temp;Humidity;BMP_temperature;BMP_pressure;BME280_temperature;BME280_humidity;BME280_pressure;Samples;Min_cycle;Max_cycle;Signal;HPM_P1;HPM_P2
2023/06/13 00:00:32;;;;;;;4.90;1.70;;;;;;;22.14;51.12;98310.81;4954677;28;20043;-76
2023/06/13 00:02:58;;;;;;;5.18;1.60;;;;;;;22.06;51.18;98308.34;4938931;29;20530;-76
2023/06/13 00:05:24;;;;;;;6.43;2.10;;;;;;;22.05;51.10;98310.16;4954446;29;20419;-76
2023/06/13 00:07:49;;;;;;;8.13;1.90;;;;;;;22.06;51.34;98316.31;4938405;29;20046;-76
2023/06/13 00:10:15;;;;;;;6.22;1.88;;;;;;;22.01;51.38;98314.28;4938277;29;20031;-76
2023/06/13 00:12:41;;;;;;;4.60;1.58;;;;;;;21.99;51.65;98307.50;4922264;28;20035;-76
2023/06/13 00:15:10;;;;;;;6.55;1.70;;;;;;;21.95;51.42;98303.59;4938408;29;20570;-76
2023/06/13 00:17:37;;;;;;;3.85;1.90;;;;;;;21.93;51.35;98305.66;4955466;28;20042;-76
2023/06/13 00:20:04;;;;;;;4.65;1.50;;;;;;;21.90;51.56;98298.06;4938005;29;20027;-76
2023/06/13 00:22:30;;;;;;;6.82;1.85;;;;;;;21.88;51.40;98297.47;4953789;28;20102;-76
2023/06/13 00:24:55;;;;;;;5.63;2.00;;;;;;;21.82;51.49;98297.25;4953785;29;20035;-76
2023/06/13 00:27:21;;;;;;;4.28;1.70;;;;;;;21.80;51.62;98295.81;4953508;29;20038;-76
2023/06/13 00:29:46;;;;;;;5.68;2.05;;;;;;;21.78;51.80;98298.66;4953980;29;20035;-76
2023/06/13 00:32:12;;;;;;;7.47;1.75;;;;;;;21.73;51.62;98292.31;4953547;28;20080;-76
2023/06/13 00:34:38;;;;;;;6.68;2.15;;;;;;;21.70;52.06;98298.84;4953607;28;20498;-76
2023/06/13 00:37:05;;;;;;;7.18;1.70;;;;;;;21.66;51.97;98292.28;4953622;29;20110;-76
2023/06/13 00:39:30;;;;;;;3.63;1.85;;;;;;;21.66;51.89;98300.25;4937566;28;20105;-76
2023/06/13 00:41:56;;;;;;;6.97;1.90;;;;;;;21.63;52.14;98304.16;4953711;29;20470;-76
2023/06/13 00:44:21;;;;;;;5.60;2.10;;;;;;;21.61;52.16;98300.03;4953788;28;20035;-76
2023/06/13 00:46:47;;;;;;;7.53;1.92;;;;;;;21.60;52.08;98298.38;4936605;29;20406;-76
2023/06/13 00:49:15;;;;;;;4.53;1.85;;;;;;;21.57;52.31;98293.47;4937712;29;20391;-76
2023/06/13 00:51:41;;;;;;;3.55;1.85;;;;;;;21.54;52.25;98294.72;4953408;29;20454;-76
2023/06/13 00:54:07;;;;;;;10.35;2.08;;;;;;;21.50;52.60;98299.56;4937112;29;20138;-76
2023/06/13 00:56:33;;;;;;;4.80;2.00;;;;;;;21.48;52.51;98287.50;4937298;28;20135;-76
2023/06/13 00:59:02;;;;;;;5.95;2.17;;;;;;;21.45;52.88;98287.91;4937311;29;20498;-76
2023/06/13 01:01:28;;;;;;;7.50;2.10;;;;;;;21.44;52.72;98288.91;4921814;29;20062;-76
2023/06/13 01:03:55;;;;;;;8.27;2.10;;;;;;;21.39;52.96;98284.19;4921301;29;20031;-76
2023/06/13 01:06:24;;;;;;;7.68;1.98;;;;;;;21.38;53.09;98287.03;4921674;29;20515;-76
2023/06/13 01:08:51;;;;;;;2.38;1.90;;;;;;;21.40;52.82;98285.84;4953320;28;20435;-76
2023/06/13 01:11:23;;;;;;;3.80;1.98;;;;;;;21.36;53.02;98271.31;4937631;29;20491;-76
2023/06/13 01:13:54;;;;;;;7.68;1.90;;;;;;;21.37;53.02;98278.25;4937990;29;20039;-76
2023/06/13 01:16:47;;;;;;;6.88;2.20;;;;;;;21.35;53.24;98275.00;4937729;29;20066;-76
2023/06/13 01:19:38;;;;;;;5.45;2.10;;;;;;;21.34;53.22;98286.63;4952759;28;20039;-76
2023/06/13 01:22:19;;;;;;;7.10;1.90;;;;;;;21.27;53.25;98273.31;4953171;28;20039;-76
2023/06/13 01:25:08;;;;;;;9.60;2.40;;;;;;;21.28;53.18;98282.91;4938839;29;20074;-76
2023/06/13 01:27:33;;;;;;;4.90;2.00;;;;;;;21.25;53.50;98290.44;4953867;28;20037;-76
2023/06/13 01:29:59;;;;;;;3.53;2.13;;;;;;;21.22;53.41;98283.72;4952575;28;20491;-76
2023/06/13 01:32:24;;;;;;;8.77;2.08;;;;;;;21.21;53.67;98283.91;4936863;29;20035;-76
2023/06/13 01:34:50;;;;;;;4.43;2.30;;;;;;;21.18;53.58;98279.81;4937170;29;20038;-76
2023/06/13 01:37:15;;;;;;;9.13;2.28;;;;;;;21.12;53.57;98281.41;4952772;28;20083;-76
2023/06/13 01:39:41;;;;;;;7.63;2.97;;;;;;;21.09;53.62;98273.81;4936759;29;20034;-76
2023/06/13 01:42:07;;;;;;;7.05;4.75;;;;;;;21.08;53.45;98274.88;4952676;28;20031;-76
2023/06/13 01:44:32;;;;;;;11.75;7.15;;;;;;;21.07;53.48;98283.84;4952931;29;20046;-76
2023/06/13 01:47:19;;;;;;;13.45;7.93;;;;;;;21.05;53.80;98280.56;4936698;29;20090;-76
2023/06/13 01:50:06;;;;;;;10.23;8.05;;;;;;;21.03;53.86;98274.63;4952644;28;20039;-76
2023/06/13 01:52:53;;;;;;;8.73;6.45;;;;;;;21.00;53.94;98272.38;4953738;28;20390;-76
2023/06/13 01:55:47;;;;;;;17.90;6.15;;;;;;;20.95;53.79;98267.66;4954479;28;20062;-76
2023/06/13 01:58:16;;;;;;;10.85;4.60;;;;;;;20.92;54.01;98268.03;4954315;28;20125;-76
2023/06/13 02:00:42;;;;;;;9.05;4.28;;;;;;;20.91;54.05;98270.88;4940490;29;20050;-75
2023/06/13 02:03:08;;;;;;;9.55;4.35;;;;;;;20.89;53.88;98264.94;4924442;29;20503;-76
2023/06/13 02:05:34;;;;;;;7.57;3.33;;;;;;;20.87;54.05;98265.13;4940653;29;20046;-76
2023/06/13 02:08:01;;;;;;;10.13;3.75;;;;;;;20.84;54.06;98264.72;4924792;29;20039;-76
2023/06/13 02:10:26;;;;;;;7.55;3.40;;;;;;;20.84;54.03;98264.72;4940435;29;20031;-76
2023/06/13 02:12:52;;;;;;;6.40;2.80;;;;;;;20.79;54.00;98267.94;4957374;28;20098;-76
2023/06/13 02:15:17;;;;;;;5.65;2.63;;;;;;;20.77;54.12;98270.78;4956197;28;20134;-76
2023/06/13 02:17:43;;;;;;;6.00;2.50;;;;;;;20.74;54.02;98271.19;4956082;29;20483;-76
2023/06/13 02:20:09;;;;;;;5.38;2.45;;;;;;;20.73;54.16;98277.50;4940216;29;20035;-76
2023/06/13 02:22:35;;;;;;;4.70;2.50;;;;;;;20.70;54.22;98271.75;4956189;28;20039;-75
2023/06/13 02:25:00;;;;;;;9.50;2.80;;;;;;;20.67;54.15;98272.97;4957311;28;20039;-76
2023/06/13 02:27:26;;;;;;;3.47;2.50;;;;;;;20.67;54.19;98274.78;4955930;29;20054;-76
2023/06/13 02:29:53;;;;;;;6.10;2.55;;;;;;;20.66;54.45;98278.47;4955618;29;20054;-76
2023/06/13 02:32:18;;;;;;;7.85;2.45;;;;;;;20.64;54.43;98276.03;4957029;28;20027;-76
2023/06/13 02:34:44;;;;;;;7.13;2.50;;;;;;;20.64;54.54;98278.66;4940075;29;20096;-76
2023/06/13 02:37:11;;;;;;;4.15;2.40;;;;;;;20.63;54.54;98284.94;4955535;29;20150;-76
2023/06/13 02:39:36;;;;;;;9.25;2.60;;;;;;;20.61;54.30;98285.13;4957171;28;20043;-76
2023/06/13 02:42:02;;;;;;;4.53;2.60;;;;;;;20.58;54.40;98288.16;4956771;28;20546;-76
2023/06/13 02:44:27;;;;;;;4.28;2.72;;;;;;;20.61;54.44;98295.75;4955668;29;20098;-75
2023/06/13 02:46:53;;;;;;;9.18;2.70;;;;;;;20.61;54.37;98295.75;4955329;28;20062;-75
2023/06/13 02:49:19;;;;;;;3.65;2.45;;;;;;;20.63;54.45;98294.75;4955591;29;20082;-75
2023/06/13 02:51:45;;;;;;;4.65;2.47;;;;;;;20.64;54.27;98297.22;4956765;28;20035;-75
2023/06/13 02:54:11;;;;;;;7.60;2.63;;;;;;;20.63;54.16;98292.91;4956908;28;20433;-76
2023/06/13 02:56:37;;;;;;;4.93;2.40;;;;;;;20.70;54.18;98299.13;4956770;28;20043;-75
2023/06/13 02:59:02;;;;;;;6.03;2.70;;;;;;;20.75;53.98;98309.16;4955314;29;20051;-75
2023/06/13 03:01:29;;;;;;;6.40;2.50;;;;;;;20.91;53.90;98310.69;4955489;28;20495;-76
2023/06/13 03:03:54;;;;;;;6.90;2.60;;;;;;;21.12;53.07;98305.28;4956547;28;20202;-76
2023/06/13 03:06:20;;;;;;;6.15;2.70;;;;;;;21.36;52.75;98307.66;4956313;28;20023;-76
2023/06/13 03:08:45;;;;;;;3.90;2.50;;;;;;;21.55;51.94;98304.28;4955068;28;20118;-76
2023/06/13 03:11:12;;;;;;;7.47;2.50;;;;;;;21.79;51.30;98308.28;4954698;29;20054;-74
2023/06/13 03:13:38;;;;;;;7.03;2.45;;;;;;;22.07;50.77;98312.63;4956289;28;20035;-75
2023/06/13 03:16:04;;;;;;;3.72;2.15;;;;;;;22.36;49.93;98318.63;4939070;29;20491;-75
2023/06/13 03:18:30;;;;;;;7.47;2.40;;;;;;;22.65;49.49;98314.75;4956101;28;20493;-76
2023/06/13 03:20:55;;;;;;;8.63;2.55;;;;;;;22.95;48.70;98312.47;4955937;28;20419;-77
2023/06/13 03:23:21;;;;;;;6.57;2.35;;;;;;;23.24;48.01;98309.56;4938942;29;20090;-80
2023/06/13 03:25:52;;;;;;;6.22;2.10;;;;;;;23.57;46.95;98317.44;4954496;28;20074;-76
2023/06/13 03:28:18;;;;;;;5.20;2.40;;;;;;;23.92;46.50;98327.75;4955788;28;20031;-76
2023/06/13 03:30:43;;;;;;;10.63;2.47;;;;;;;24.31;45.45;98315.22;4954804;29;20028;-75
2023/06/13 03:33:09;;;;;;;5.68;2.42;;;;;;;24.62;44.63;98313.59;4955977;28;20082;-68
2023/06/13 03:35:35;;;;;;;10.60;2.88;;;;;;;25.08;43.79;98320.34;4938793;29;20066;-70
2023/06/13 03:38:00;;;;;;;7.80;2.13;;;;;;;25.46;42.70;98316.66;4955765;28;20027;-70
2023/06/13 03:40:26;;;;;;;5.10;2.20;;;;;;;25.91;44.59;98320.81;4954788;28;20043;-74
2023/06/13 03:42:51;;;;;;;22.08;2.25;;;;;;;26.59;44.59;98318.00;4955735;28;20430;-70
2023/06/13 03:45:17;;;;;;;6.68;2.10;;;;;;;27.21;42.47;98315.66;4938573;29;20043;-71
2023/06/13 03:47:42;;;;;;;9.38;3.15;;;;;;;27.78;41.54;98311.47;4955668;28;20470;-71
2023/06/13 03:50:08;;;;;;;13.95;3.10;;;;;;;28.31;40.33;98315.66;4955596;28;20024;-71
2023/06/13 03:52:33;;;;;;;9.20;2.70;;;;;;;28.76;39.01;98319.34;4922521;29;20031;-72
2023/06/13 03:54:59;;;;;;;5.40;2.17;;;;;;;29.23;37.79;98326.22;4938063;29;20110;-72
2023/06/13 03:57:24;;;;;;;16.17;4.00;;;;;;;29.63;34.96;98325.09;4954294;28;20541;-75
2023/06/13 03:59:51;;;;;;;10.27;3.85;;;;;;;29.72;33.99;98320.09;4954386;29;20446;-75
2023/06/13 04:02:19;;;;;;;17.73;4.53;;;;;;;29.88;33.81;98327.28;4955066;28;20027;-76
2023/06/13 04:04:46;;;;;;;17.90;3.65;;;;;;;30.08;33.40;98326.69;4955501;28;20042;-79
2023/06/13 04:07:11;;;;;;;14.50;3.70;;;;;;;30.30;32.92;98320.44;4954032;29;20166;-73
2023/06/13 04:09:37;;;;;;;9.18;3.72;;;;;;;30.78;32.61;98321.34;4954157;29;20542;-74
2023/06/13 04:12:03;;;;;;;9.63;3.40;;;;;;;31.33;31.29;98326.56;4938194;29;20108;-71
2023/06/13 04:14:28;;;;;;;10.07;3.45;;;;;;;31.80;30.65;98322.97;4939036;29;20054;-71
2023/06/13 04:16:54;;;;;;;9.82;3.67;;;;;;;32.06;30.07;98323.03;4954480;28;20027;-71
2023/06/13 04:19:19;;;;;;;10.38;3.53;;;;;;;32.30;29.97;98317.94;4951669;29;20094;-72
2023/06/13 04:21:46;;;;;;;10.90;3.42;;;;;;;32.83;29.52;98328.50;4934502;29;20425;-72
2023/06/13 04:24:15;;;;;;;7.22;2.85;;;;;;;33.22;29.03;98327.88;4919811;29;20043;-73
2023/06/13 04:26:41;;;;;;;8.43;3.13;;;;;;;33.62;28.60;98330.69;4936025;28;20031;-72
2023/06/13 04:29:10;;;;;;;8.93;3.10;;;;;;;33.64;28.14;98332.03;4953436;29;20074;-71
2023/06/13 04:31:38;;;;;;;13.02;3.05;;;;;;;33.41;28.72;98324.56;4954894;28;20454;-71
2023/06/13 04:34:04;;;;;;;11.18;3.00;;;;;;;33.74;28.60;98335.81;4938361;29;20038;-71
2023/06/13 04:36:32;;;;;;;10.60;3.15;;;;;;;34.16;27.54;98332.56;4954815;28;20387;-71
2023/06/13 04:39:04;;;;;;;5.20;2.88;;;;;;;34.60;26.95;98339.00;4938015;29;20042;-71
2023/06/13 04:41:34;;;;;;;12.98;3.47;;;;;;;34.45;26.74;98341.88;4955251;28;20505;-71
2023/06/13 04:44:00;;;;;;;11.00;3.47;;;;;;;33.62;27.75;98347.75;4953558;29;20043;-71
2023/06/13 04:46:26;;;;;;;7.10;3.10;;;;;;;32.98;28.62;98341.16;4937682;29;20174;-71
2023/06/13 04:48:52;;;;;;;8.23;3.08;;;;;;;32.33;29.96;98351.72;4921730;29;20039;-71
2023/06/13 04:51:20;;;;;;;8.10;3.43;;;;;;;31.70;30.96;98360.72;4937630;29;20579;-71
2023/06/13 04:53:46;;;;;;;7.97;3.30;;;;;;;31.15;31.34;98368.25;4953107;28;20299;-71
2023/06/13 04:56:11;;;;;;;6.35;2.58;;;;;;;30.58;32.77;98367.00;4953407;28;20467;-71
2023/06/13 04:58:37;;;;;;;10.38;2.70;;;;;;;30.10;33.30;98367.59;4953636;29;20050;-71
2023/06/13 05:01:02;;;;;;;6.35;2.60;;;;;;;29.72;34.40;98366.63;4937423;29;20027;-71
2023/06/13 05:03:28;;;;;;;9.60;2.83;;;;;;;29.33;35.05;98372.03;4953077;29;20487;-71
2023/06/13 05:05:53;;;;;;;4.97;2.60;;;;;;;28.96;35.86;98372.56;4937124;29;20029;-71
2023/06/13 05:08:21;;;;;;;10.35;2.70;;;;;;;28.65;36.70;98372.09;4953157;29;20039;-71
2023/06/13 05:10:46;;;;;;;13.52;6.90;;;;;;;28.37;37.11;98364.06;4937523;29;20517;-70
2023/06/13 05:13:12;;;;;;;10.63;5.18;;;;;;;28.18;36.91;98368.81;4937027;29;20043;-70
2023/06/13 05:15:42;;;;;;;11.70;6.10;;;;;;;28.09;37.38;98371.91;4921465;29;20031;-71
2023/06/13 05:18:12;;;;;;;14.23;8.35;;;;;;;27.98;37.21;98373.56;4921709;29;20031;-71
2023/06/13 05:20:38;;;;;;;9.40;6.30;;;;;;;27.92;37.35;98371.81;4954275;28;20027;-71
2023/06/13 05:23:03;;;;;;;8.40;5.72;;;;;;;27.90;37.69;98373.13;4952922;29;20553;-70
2023/06/13 05:25:29;;;;;;;9.30;4.82;;;;;;;28.01;37.27;98376.84;4953250;28;20031;-70
2023/06/13 05:27:55;;;;;;;7.72;4.68;;;;;;;28.02;37.24;98370.41;4921092;29;20472;-71
2023/06/13 05:30:20;;;;;;;8.93;3.42;;;;;;;28.11;37.11;98383.19;4953041;29;20030;-71
2023/06/13 05:32:46;;;;;;;7.53;3.80;;;;;;;28.15;37.11;98376.31;4952785;28;20035;-71
2023/06/13 05:35:12;;;;;;;12.05;3.53;;;;;;;28.23;37.22;98385.00;4937141;29;20046;-72
2023/06/13 05:37:40;;;;;;;7.30;3.28;;;;;;;28.26;36.73;98384.53;4921035;29;20035;-71
2023/06/13 05:40:06;;;;;;;6.07;3.10;;;;;;;28.24;36.76;98383.97;4952824;29;20106;-70
2023/06/13 05:42:34;;;;;;;7.85;3.17;;;;;;;28.33;36.76;98386.00;4937263;29;20121;-71
2023/06/13 05:45:05;;;;;;;8.65;3.10;;;;;;;28.30;36.59;98391.88;4952734;29;20031;-72
2023/06/13 05:47:30;;;;;;;5.85;2.80;;;;;;;28.23;37.21;98393.91;4936862;29;20039;-71
2023/06/13 05:49:56;;;;;;;12.10;2.72;;;;;;;28.11;37.28;98390.44;4954053;28;20480;-72
2023/06/13 05:52:21;;;;;;;8.10;2.95;;;;;;;28.01;37.65;98399.13;4953864;28;20094;-72
2023/06/13 05:54:47;;;;;;;8.63;2.70;;;;;;;27.93;37.83;98402.97;4936760;29;20052;-71
2023/06/13 05:57:12;;;;;;;9.95;2.58;;;;;;;27.93;37.96;98402.16;4953963;28;20491;-71
2023/06/13 05:59:38;;;;;;;5.60;2.88;;;;;;;28.01;37.72;98401.00;4937309;29;20102;-71
2023/06/13 06:02:04;;;;;;;5.78;3.00;;;;;;;28.00;38.10;98392.13;4953775;28;20610;-71
2023/06/13 06:04:29;;;;;;;10.60;3.35;;;;;;;28.01;37.51;98404.47;4936859;29;20118;-71
2023/06/13 06:06:55;;;;;;;19.20;11.98;;;;;;;27.91;38.13;98397.03;4953637;28;20054;-71
2023/06/13 06:09:20;;;;;;;21.73;10.38;;;;;;;27.83;38.09;98402.75;4920724;29;20387;-71
2023/06/13 06:11:46;;;;;;;21.27;13.05;;;;;;;27.75;38.37;98398.59;4953980;28;20035;-72
2023/06/13 06:14:11;;;;;;;18.20;7.63;;;;;;;27.68;38.10;98411.31;4952826;28;20123;-71
2023/06/13 06:16:36;;;;;;;10.98;5.30;;;;;;;27.59;38.44;98410.03;4952649;29;20039;-71
2023/06/13 06:19:02;;;;;;;15.18;3.88;;;;;;;27.42;38.66;98415.28;4952267;28;20403;-72
2023/06/13 06:21:28;;;;;;;8.25;3.55;;;;;;;27.38;39.16;98406.09;4953594;28;20035;-70
2023/06/13 06:23:54;;;;;;;6.55;3.85;;;;;;;27.32;39.55;98401.69;4952903;28;20131;-72
2023/06/13 06:26:20;;;;;;;8.88;3.60;;;;;;;27.31;39.44;98403.56;4952457;29;20082;-71
2023/06/13 06:28:46;;;;;;;9.38;3.75;;;;;;;27.27;39.69;98403.16;4952723;29;20034;-71
2023/06/13 06:31:12;;;;;;;9.00;3.83;;;;;;;27.22;39.79;98405.72;4936498;29;20027;-71
2023/06/13 06:33:37;;;;;;;6.85;3.80;;;;;;;27.18;39.83;98406.41;4936515;29;20036;-72
2023/06/13 06:36:03;;;;;;;6.22;3.53;;;;;;;27.18;40.09;98411.78;4920570;29;20483;-72
2023/06/13 06:38:28;;;;;;;5.70;3.75;;;;;;;27.17;39.88;98408.28;4936648;29;20074;-71
2023/06/13 06:40:54;;;;;;;7.38;3.40;;;;;;;27.09;40.01;98408.66;4920949;29;20031;-72
2023/06/13 06:43:19;;;;;;;9.00;3.40;;;;;;;27.09;40.29;98405.97;4952366;29;20031;-71
2023/06/13 06:45:45;;;;;;;7.35;3.40;;;;;;;27.11;39.89;98411.09;4938960;28;20054;-71
2023/06/13 06:48:10;;;;;;;9.70;3.30;;;;;;;27.09;39.98;98408.66;4955848;29;20051;-70
2023/06/13 06:50:36;;;;;;;6.75;3.53;;;;;;;27.10;39.93;98412.94;4940160;29;20574;-73
2023/06/13 06:53:02;;;;;;;8.48;3.35;;;;;;;27.06;40.25;98409.91;4955644;28;20522;-70
2023/06/13 06:55:27;;;;;;;10.73;3.60;;;;;;;27.04;40.14;98403.97;4955636;28;20074;-71
2023/06/13 06:57:53;;;;;;;9.45;3.28;;;;;;;27.08;40.14;98402.44;4955776;29;20027;-71
2023/06/13 07:00:22;;;;;;;11.52;3.35;;;;;;;27.14;40.29;98408.75;4939972;29;20039;-72
2023/06/13 07:02:48;;;;;;;5.57;3.22;;;;;;;27.13;39.73;98401.75;4939705;29;20030;-72
2023/06/13 07:05:15;;;;;;;6.28;3.20;;;;;;;27.21;39.92;98405.94;4939782;29;20442;-71
2023/06/13 07:07:42;;;;;;;10.73;3.45;;;;;;;27.22;40.12;98405.72;4939984;29;20089;-72
2023/06/13 07:10:08;;;;;;;10.65;3.88;;;;;;;27.26;39.85;98398.03;4940139;29;20388;-71
2023/06/13 07:12:34;;;;;;;11.02;3.90;;;;;;;27.32;39.78;98399.81;4923939;29;20049;-71
2023/06/13 07:15:00;;;;;;;8.80;3.42;;;;;;;27.33;39.89;98401.44;4939702;29;20047;-71
2023/06/13 07:17:25;;;;;;;12.63;3.47;;;;;;;27.36;39.40;98397.50;4939448;29;20033;-71
2023/06/13 07:19:51;;;;;;;6.18;2.95;;;;;;;27.45;39.26;98404.09;4939729;29;20050;-71
2023/06/13 07:22:16;;;;;;;11.20;3.15;;;;;;;27.53;39.07;98402.94;4955200;28;20402;-71
2023/06/13 07:24:42;;;;;;;7.35;3.00;;;;;;;27.57;39.08;98396.84;4939477;29;20047;-71
2023/06/13 07:27:07;;;;;;;8.95;3.28;;;;;;;27.65;38.95;98400.25;4939051;29;20391;-71
2023/06/13 07:29:33;;;;;;;5.70;3.42;;;;;;;27.71;38.33;98386.69;4923338;29;20038;-71
2023/06/13 07:32:00;;;;;;;9.30;3.72;;;;;;;27.76;38.42;98381.44;4939173;29;20029;-71
2023/06/13 07:34:25;;;;;;;7.95;3.33;;;;;;;27.86;38.33;98388.06;4923292;29;20186;-73
2023/06/13 07:36:51;;;;;;;5.13;3.10;;;;;;;27.92;38.10;98387.09;4923214;29;20126;-72
2023/06/13 07:39:16;;;;;;;12.57;7.47;;;;;;;27.94;38.43;98384.97;4938792;29;20039;-72
2023/06/13 07:41:46;;;;;;;9.80;5.47;;;;;;;27.95;37.83;98379.41;4923053;29;20396;-71
2023/06/13 07:44:12;;;;;;;6.90;4.53;;;;;;;28.06;37.61;98387.66;4954761;29;20026;-71
2023/06/13 07:46:37;;;;;;;13.77;4.95;;;;;;;28.19;37.67;98395.41;4954370;28;20039;-71
2023/06/13 07:49:03;;;;;;;11.82;5.45;;;;;;;28.27;37.27;98383.47;4922540;29;20039;-71
2023/06/13 07:51:28;;;;;;;7.85;4.90;;;;;;;28.49;36.96;98397.03;4938870;29;20070;-71
2023/06/13 07:53:54;;;;;;;12.45;4.20;;;;;;;28.63;36.52;98384.94;4938619;29;20051;-72
2023/06/13 07:56:20;;;;;;;7.53;3.88;;;;;;;28.80;36.25;98387.66;4954402;28;20038;-72
2023/06/13 07:58:45;;;;;;;14.80;4.15;;;;;;;28.98;35.68;98389.25;4954616;29;20491;-72
2023/06/13 08:01:11;;;;;;;11.02;3.47;;;;;;;29.18;35.38;98388.75;4938570;29;20039;-71
2023/06/13 08:03:36;;;;;;;9.60;3.85;;;;;;;29.46;35.17;98386.19;4954623;29;20390;-73
2023/06/13 08:06:02;;;;;;;9.75;4.10;;;;;;;29.72;34.66;98380.06;4938504;29;20094;-71
2023/06/13 08:08:27;;;;;;;11.23;3.47;;;;;;;30.01;34.14;98393.34;4938615;29;20372;-73
2023/06/13 08:10:53;;;;;;;7.35;3.65;;;;;;;30.15;33.80;98387.56;4954483;29;20031;-72
2023/06/13 08:13:19;;;;;;;6.93;3.70;;;;;;;30.35;33.62;98377.00;4922462;29;20039;-73
2023/06/13 08:15:44;;;;;;;11.18;3.40;;;;;;;30.67;32.94;98382.44;4938133;29;20122;-73
2023/06/13 08:18:10;;;;;;;10.38;3.47;;;;;;;30.78;31.93;98386.00;4953714;29;20039;-72
2023/06/13 08:20:36;;;;;;;6.97;3.28;;;;;;;31.11;31.19;98384.13;4938442;29;20062;-72
2023/06/13 08:23:01;;;;;;;9.57;3.40;;;;;;;31.42;30.09;98380.78;4955556;28;20090;-71
2023/06/13 08:25:27;;;;;;;7.32;2.92;;;;;;;31.79;30.37;98380.72;4938019;29;20030;-72
2023/06/13 08:27:52;;;;;;;4.18;3.05;;;;;;;32.40;28.66;98363.88;4922028;29;20050;-73
2023/06/13 08:30:18;;;;;;;6.28;2.90;;;;;;;32.98;28.43;98357.38;4954099;29;20042;-71
2023/06/13 08:32:46;;;;;;;6.20;3.30;;;;;;;33.23;28.48;98367.34;4953448;28;20062;-72
2023/06/13 08:35:12;;;;;;;4.55;2.85;;;;;;;33.22;28.36;98363.00;4938120;29;20041;-71
2023/06/13 08:37:38;;;;;;;6.93;2.92;;;;;;;33.10;29.10;98362.47;4953861;29;20478;-71
2023/06/13 08:40:06;;;;;;;8.60;2.95;;;;;;;33.43;28.50;98360.25;4937478;29;20031;-71
2023/06/13 08:42:31;;;;;;;;;;;;;;;33.66;28.39;98359.59;4954130;29;20027;-72
2023/06/13 08:44:57;;;;;;;5.97;2.30;;;;;;;33.57;27.88;98355.84;4937530;29;19985;-71
2023/06/13 08:47:22;;;;;;;9.32;2.83;;;;;;;33.52;28.14;98353.97;4937766;29;20047;-70
2023/06/13 08:49:52;;;;;;;6.53;2.65;;;;;;;33.69;28.08;98352.84;4953532;29;20121;-72
2023/06/13 08:52:18;;;;;;;7.32;2.65;;;;;;;33.51;28.77;98346.97;4955201;28;20111;-71
2023/06/13 08:54:44;;;;;;;6.57;2.50;;;;;;;33.30;27.93;98348.13;4937526;29;20126;-71
2023/06/13 08:57:11;;;;;;;3.70;2.55;;;;;;;32.98;28.73;98349.25;4922172;29;20058;-70
2023/06/13 08:59:37;;;;;;;7.68;3.05;;;;;;;32.72;29.44;98353.88;4937513;28;20474;-72
2023/06/13 09:02:03;;;;;;;5.45;3.40;;;;;;;32.47;29.60;98345.50;4953416;29;20030;-71
2023/06/13 09:04:29;;;;;;;10.77;7.60;;;;;;;32.20;29.41;98339.56;4921499;29;20031;-71
2023/06/13 09:06:59;;;;;;;9.50;4.95;;;;;;;31.92;29.01;98347.00;4936813;28;20423;-71
2023/06/13 09:09:25;;;;;;;12.32;5.20;;;;;;;31.77;28.98;98345.09;4954518;28;20035;-70
2023/06/13 09:11:51;;;;;;;14.85;7.75;;;;;;;31.77;28.97;98338.88;4953029;29;20043;-71
2023/06/13 09:14:16;;;;;;;13.50;6.18;;;;;;;31.70;29.20;98339.13;4953098;28;20456;-71
2023/06/13 09:16:43;;;;;;;9.40;5.38;;;;;;;31.78;29.56;98340.50;4937331;29;20034;-73
2023/06/13 09:19:09;;;;;;;9.97;5.20;;;;;;;32.00;29.59;98335.69;4937396;29;20035;-72
2023/06/13 09:21:36;;;;;;;10.10;3.88;;;;;;;32.02;28.94;98332.72;4937316;29;20038;-72
2023/06/13 09:24:02;;;;;;;8.77;3.88;;;;;;;32.06;29.35;98323.81;4954338;28;20031;-72
2023/06/13 09:26:28;;;;;;;6.97;3.63;;;;;;;32.05;29.96;98321.41;4937362;28;20042;-73
2023/06/13 09:28:53;;;;;;;10.40;3.55;;;;;;;32.06;29.13;98320.31;4936818;29;20039;-72
2023/06/13 09:31:19;;;;;;;12.85;3.35;;;;;;;32.07;28.89;98314.66;4952710;29;20038;-72
2023/06/13 09:33:45;;;;;;;7.32;3.00;;;;;;;32.14;29.42;98317.13;4921041;29;20047;-71
2023/06/13 09:36:10;;;;;;;8.88;3.30;;;;;;;32.25;29.69;98307.94;4921070;29;20122;-72
2023/06/13 09:38:40;;;;;;;10.63;3.55;;;;;;;32.27;29.12;98313.06;4952757;29;20039;-71
2023/06/13 09:41:07;;;;;;;9.50;3.80;;;;;;;31.95;29.14;98310.59;4937037;29;20077;-71
2023/06/13 09:43:32;;;;;;;8.63;3.78;;;;;;;31.66;29.36;98308.34;4936840;29;20027;-70
2023/06/13 09:45:58;;;;;;;7.03;4.10;;;;;;;31.71;29.39;98313.78;4936993;29;20518;-71
2023/06/13 09:48:24;;;;;;;10.05;3.72;;;;;;;31.58;29.63;98307.00;4952715;29;20558;-72
2023/06/13 09:50:52;;;;;;;8.48;3.38;;;;;;;31.64;29.46;98303.22;4937089;29;20038;-71
2023/06/13 09:53:17;;;;;;;9.63;3.42;;;;;;;31.68;29.58;98309.72;4937051;29;20118;-71
2023/06/13 09:55:43;;;;;;;8.52;4.78;;;;;;;31.69;29.70;98310.50;4952885;29;20411;-71
2023/06/13 09:58:09;;;;;;;7.85;3.40;;;;;;;31.52;29.68;98308.81;4953169;28;20066;-72
2023/06/13 10:00:34;;;;;;;8.00;3.50;;;;;;;31.31;30.44;98315.22;4937084;29;20035;-72
2023/06/13 10:03:01;;;;;;;9.45;3.58;;;;;;;31.16;30.32;98311.38;4936894;29;20039;-72
2023/06/13 10:05:26;;;;;;;11.93;3.92;;;;;;;31.11;30.68;98313.25;4921085;29;20062;-71
2023/06/13 10:07:52;;;;;;;7.80;3.97;;;;;;;31.02;30.94;98308.31;4952812;28;20059;-70
2023/06/13 10:10:18;;;;;;;8.35;3.45;;;;;;;30.85;31.12;98310.34;4920888;29;20557;-70
2023/06/13 10:12:49;;;;;;;11.88;3.60;;;;;;;30.70;31.34;98308.38;4936816;29;20119;-74
2023/06/13 10:15:31;;;;;;;7.75;3.80;;;;;;;30.56;31.07;98299.13;4936780;29;20039;-71
2023/06/13 10:17:57;;;;;;;5.28;3.53;;;;;;;30.59;31.61;98302.09;4938132;29;20031;-71
2023/06/13 10:20:23;;;;;;;8.63;3.50;;;;;;;30.56;31.36;98301.81;4956138;28;20027;-71
2023/06/13 10:22:48;;;;;;;7.32;3.30;;;;;;;30.62;31.39;98303.47;4940267;29;20053;-71
2023/06/13 10:25:15;;;;;;;8.40;3.30;;;;;;;30.70;31.49;98305.69;4940155;29;20574;-71
2023/06/13 10:27:45;;;;;;;10.57;3.22;;;;;;;30.82;31.87;98300.91;4924971;29;20499;-72
2023/06/13 10:30:33;;;;;;;6.88;3.00;;;;;;;30.94;31.80;98295.31;4940570;29;20067;-70
2023/06/13 10:33:01;;;;;;;6.97;3.08;;;;;;;31.03;31.59;98291.09;4956057;28;20336;-71
2023/06/13 10:35:33;;;;;;;6.45;3.17;;;;;;;31.13;31.65;98295.72;4957228;28;20054;-71
2023/06/13 10:38:17;;;;;;;6.45;3.70;;;;;;;31.21;31.56;98300.59;4957717;28;20110;-71
2023/06/13 10:41:04;;;;;;;9.50;3.55;;;;;;;31.29;31.05;98296.59;4956035;28;20035;-71
2023/06/13 10:43:48;;;;;;;5.97;3.33;;;;;;;31.27;31.31;98287.97;4955915;28;20469;-75
2023/06/13 10:46:15;;;;;;;6.68;2.90;;;;;;;31.20;31.13;98295.47;4956081;29;20027;-72
2023/06/13 10:48:48;;;;;;;9.80;3.33;;;;;;;31.01;31.20;98285.16;4940147;29;20075;-72
2023/06/13 10:51:21;;;;;;;9.65;3.28;;;;;;;31.09;30.93;98286.56;4939965;29;20030;-72
2023/06/13 10:54:11;;;;;;;9.82;3.05;;;;;;;31.03;31.53;98280.31;4955474;28;20139;-73
2023/06/13 10:56:42;;;;;;;7.40;3.20;;;;;;;30.96;31.42;98268.09;4955211;29;20044;-71
2023/06/13 10:59:14;;;;;;;6.00;2.97;;;;;;;30.91;30.78;98281.56;4940727;29;20039;-73
2023/06/13 11:01:40;;;;;;;8.32;3.10;;;;;;;30.63;31.94;98273.59;4939560;29;20494;-72
2023/06/13 11:04:09;;;;;;;12.15;3.08;;;;;;;30.64;31.33;98271.69;4939556;29;20043;-71
2023/06/13 11:06:36;;;;;;;10.07;3.05;;;;;;;30.62;31.13;98265.78;4955725;29;20035;-72
2023/06/13 11:09:08;;;;;;;6.43;3.15;;;;;;;30.52;31.72;98266.53;4939439;29;20070;-72
2023/06/13 11:11:54;;;;;;;5.60;2.78;;;;;;;30.43;31.54;98254.59;4957035;28;20110;-72
2023/06/13 11:14:33;;;;;;;5.50;2.83;;;;;;;30.35;31.84;98261.25;4925771;28;20407;-72
2023/06/13 11:16:59;;;;;;;9.02;3.33;;;;;;;30.28;31.71;98263.31;4923504;29;20491;-71
2023/06/13 11:19:26;;;;;;;12.35;3.30;;;;;;;30.20;31.58;98253.03;4939633;29;20050;-72
2023/06/13 11:21:58;;;;;;;9.25;3.38;;;;;;;30.07;31.85;98255.09;4955569;29;20047;-72
2023/06/13 11:24:24;;;;;;;4.55;2.92;;;;;;;29.89;32.35;98250.09;4956456;28;20102;-71
2023/06/13 11:26:49;;;;;;;4.80;3.05;;;;;;;29.72;32.73;98247.47;4939601;28;20035;-72
2023/06/13 11:29:15;;;;;;;7.32;3.58;;;;;;;29.64;33.02;98235.28;4939288;29;20039;-71
2023/06/13 11:31:41;;;;;;;9.65;3.53;;;;;;;29.66;32.46;98240.41;4954484;28;20419;-72